Time;durP1;ratioP1;P1;durP2;ratioP2;P2;SDS_P1;SDS_P2;PMS_P1;PMS_P2;Temp;Humidity;BMP_temperature;BMP_pressure;BME280_temperature;BME280_humidity;BME280_pressure;Samples;Min_cycle;Max_cycle;Signal;HPM_P1;HPM_P2
2024/04/12 00:01:44;;;;;;;8.10;5.43;;;14.50;83.70;;;;;;5383238;26;22087;-64
2024/04/12 00:04:15;;;;;;;11.13;5.17;;;14.50;84.00;;;;;;5396375;26;20555;-64
2024/04/12 00:06:44;;;;;;;14.37;5.30;;;14.50;84.60;;;;;;5386230;26;20925;-64
2024/04/12 00:09:17;;;;;;;9.60;5.13;;;14.50;85.00;;;;;;5390075;26;20513;-64
2024/04/12 00:11:46;;;;;;;5.57;4.53;;;14.50;85.50;;;;;;5384369;26;20842;-64
2024/04/12 00:14:13;;;;;;;8.73;5.20;;;14.40;86.20;;;;;;5394259;26;21042;-64
2024/04/12 00:16:43;;;;;;;6.50;4.97;;;14.40;87.00;;;;;;5393413;26;20482;-64
2024/04/12 00:19:12;;;;;;;9.37;5.17;;;14.40;87.00;;;;;;5397782;26;21018;-64
2024/04/12 00:21:41;;;;;;;10.23;5.10;;;14.40;87.40;;;;;;5381438;26;20577;-64
2024/04/12 00:24:11;;;;;;;8.20;5.33;;;14.40;87.60;;;;;;5399995;26;21378;-64
2024/04/12 00:26:37;;;;;;;11.83;4.97;;;14.30;88.20;;;;;;5392393;26;20603;-64
2024/04/12 00:29:07;;;;;;;7.13;4.50;;;14.30;88.70;;;;;;5395367;26;20462;-64
2024/04/12 00:31:42;;;;;;;8.90;5.00;;;14.30;89.20;;;;;;5384792;26;20483;-64
2024/04/12 00:34:07;;;;;;;6.10;4.80;;;14.20;89.60;;;;;;5397701;26;20478;-64
2024/04/12 00:36:34;;;;;;;7.23;4.37;;;14.20;90.10;;;;;;5394583;26;20524;-64
2024/04/12 00:39:00;;;;;;;7.00;4.37;;;14.20;90.20;;;;;;5393068;26;20695;-64
2024/04/12 00:41:26;;;;;;;5.63;4.80;;;14.10;90.30;;;;;;5400147;26;20970;-64
2024/04/12 00:43:52;;;;;;;4.97;4.37;;;14.10;90.60;;;;;;5392417;26;20456;-64
2024/04/12 00:46:23;;;;;;;5.43;4.00;;;14.00;91.30;;;;;;5396721;26;20280;-64
2024/04/12 00:48:52;;;;;;;29.10;5.60;;;14.00;91.60;;;;;;5403934;26;20233;-64
2024/04/12 00:51:19;;;;;;;8.00;5.00;;;14.00;91.80;;;;;;5397096;26;20463;-65
2024/04/12 00:53:47;;;;;;;7.70;4.77;;;13.90;92.00;;;;;;5397790;26;20561;-66
2024/04/12 00:56:14;;;;;;;7.80;4.60;;;13.90;92.10;;;;;;5393443;26;20455;-65
2024/04/12 00:58:42;;;;;;;9.07;5.40;;;13.80;92.40;;;;;;5392907;26;20462;-65
2024/04/12 01:01:15;;;;;;;8.17;4.80;;;13.80;92.70;;;;;;5397295;26;20467;-65
2024/04/12 01:03:49;;;;;;;8.27;5.10;;;13.70;93.00;;;;;;5399268;26;20459;-65
2024/04/12 01:06:26;;;;;;;6.50;4.30;;;13.70;93.20;;;;;;5389846;26;20996;-65
2024/04/12 01:08:57;;;;;;;6.63;5.00;;;13.70;93.30;;;;;;5398982;26;20517;-64
2024/04/12 01:11:24;;;;;;;6.67;5.07;;;13.60;93.50;;;;;;5389432;26;20585;-64
2024/04/12 01:13:52;;;;;;;6.57;4.20;;;13.60;93.70;;;;;;5386908;26;20462;-64
2024/04/12 01:16:19;;;;;;;6.57;4.80;;;13.60;93.80;;;;;;5389908;26;20472;-64
2024/04/12 01:18:49;;;;;;;7.47;5.20;;;13.60;93.90;;;;;;5390648;26;20471;-64
2024/04/12 01:21:15;;;;;;;6.70;4.00;;;13.50;94.00;;;;;;5399079;26;20568;-64
2024/04/12 01:23:43;;;;;;;7.83;4.47;;;13.50;94.00;;;;;;5391189;26;20471;-64
2024/04/12 01:26:13;;;;;;;8.10;5.20;;;13.40;94.00;;;;;;5390732;26;20463;-64
2024/04/12 01:28:42;;;;;;;7.53;4.20;;;13.40;94.00;;;;;;5385408;26;20518;-64
2024/04/12 01:31:14;;;;;;;7.00;4.23;;;13.30;94.10;;;;;;5396477;26;20507;-64
2024/04/12 01:33:41;;;;;;;5.83;4.13;;;13.30;94.20;;;;;;5376326;26;20503;-65
2024/04/12 01:36:10;;;;;;;5.80;4.10;;;13.20;94.40;;;;;;5390432;26;21124;-65
2024/04/12 01:38:39;;;;;;;5.30;4.37;;;13.20;94.80;;;;;;5392281;26;20994;-65
2024/04/12 01:41:05;;;;;;;8.03;4.20;;;13.20;94.80;;;;;;5391864;26;20837;-65
2024/04/12 01:43:38;;;;;;;5.10;4.20;;;13.20;94.90;;;;;;5385254;26;20519;-65
2024/04/12 01:46:17;;;;;;;8.60;4.33;;;13.20;95.10;;;;;;5391292;26;20769;-64
2024/04/12 01:48:43;;;;;;;5.57;3.70;;;13.20;95.30;;;;;;5394756;26;20778;-66
2024/04/12 01:51:13;;;;;;;5.37;3.70;;;13.10;95.20;;;;;;5387975;26;20524;-65
2024/04/12 01:53:40;;;;;;;6.30;4.10;;;13.10;95.30;;;;;;5398303;26;20471;-64
2024/04/12 01:56:14;;;;;;;11.03;4.50;;;13.10;95.10;;;;;;5392393;26;20515;-65
2024/04/12 01:58:40;;;;;;;6.37;3.87;;;13.10;95.30;;;;;;5396062;26;20462;-65
2024/04/12 02:01:10;;;;;;;6.43;3.90;;;13.10;95.30;;;;;;5382043;26;20577;-64
2024/04/12 02:03:37;;;;;;;6.70;3.33;;;13.00;95.60;;;;;;5393373;26;20484;-64
2024/04/12 02:06:04;;;;;;;6.33;3.70;;;13.00;95.40;;;;;;5384928;26;20476;-64
2024/04/12 02:08:32;;;;;;;5.30;3.43;;;12.90;95.00;;;;;;5391311;26;20464;-65
2024/04/12 02:10:58;;;;;;;5.63;4.00;;;12.70;94.70;;;;;;5395332;26;20463;-65
2024/04/12 02:13:29;;;;;;;6.47;3.40;;;12.70;94.90;;;;;;5389327;26;20930;-65
2024/04/12 02:15:56;;;;;;;3.80;3.40;;;12.60;94.90;;;;;;5395144;26;20482;-64
2024/04/12 02:18:24;;;;;;;4.63;3.60;;;12.60;95.00;;;;;;5386435;26;20903;-65
2024/04/12 02:20:51;;;;;;;5.07;3.63;;;12.60;95.10;;;;;;5383291;26;20533;-65
2024/04/12 02:23:19;;;;;;;6.33;3.67;;;12.60;95.30;;;;;;5388082;26;20545;-64
2024/04/12 02:25:49;;;;;;;7.87;3.20;;;12.60;95.50;;;;;;5394523;26;20459;-64
2024/04/12 02:28:16;;;;;;;6.03;4.33;;;12.60;95.60;;;;;;5398392;26;20517;-64
2024/04/12 02:31:01;;;;;;;7.63;4.50;;;12.60;95.80;;;;;;5394048;26;20463;-64
2024/04/12 02:33:34;;;;;;;5.63;4.30;;;12.60;96.00;;;;;;5389629;26;20500;-65
2024/04/12 02:36:11;;;;;;;4.50;3.60;;;12.60;96.20;;;;;;5386386;26;20569;-64
2024/04/12 02:38:41;;;;;;;5.20;3.50;;;12.60;96.30;;;;;;5389913;26;21433;-64
2024/04/12 02:41:14;;;;;;;5.27;3.77;;;12.60;96.30;;;;;;5383014;26;20986;-65
2024/04/12 02:43:41;;;;;;;4.67;3.50;;;12.70;96.40;;;;;;5392211;26;20566;-65
2024/04/12 02:46:10;;;;;;;4.13;3.13;;;12.70;96.50;;;;;;5400125;26;20481;-65
2024/04/12 02:48:36;;;;;;;8.47;4.37;;;12.70;96.50;;;;;;5383664;26;20596;-65
2024/04/12 02:51:05;;;;;;;6.00;3.23;;;12.70;96.60;;;;;;5382687;26;20515;-65
2024/04/12 02:53:31;;;;;;;5.00;3.40;;;12.70;96.80;;;;;;5393171;26;20584;-65
2024/04/12 02:56:10;;;;;;;4.30;3.50;;;12.70;97.10;;;;;;5398020;26;20455;-65
2024/04/12 02:58:54;;;;;;;5.00;3.33;;;12.70;97.20;;;;;;5389929;26;20254;-65
2024/04/12 03:01:23;;;;;;;6.37;3.80;;;12.80;97.20;;;;;;5396123;26;20534;-65
2024/04/12 03:03:55;;;;;;;4.87;3.80;;;12.80;97.30;;;;;;5395088;26;20459;-65
2024/04/12 03:06:23;;;;;;;6.07;3.37;;;12.70;97.60;;;;;;5393854;26;21121;-66
2024/04/12 03:08:51;;;;;;;3.83;3.30;;;12.70;97.80;;;;;;5423182;26;20459;-65
2024/04/12 03:13:46;;;;;;;6.93;4.20;;;12.70;98.60;;;;;;5394802;26;20468;-65
2024/04/12 03:16:15;;;;;;;4.40;3.57;;;12.70;98.50;;;;;;5393010;26;20519;-65
2024/04/12 03:18:45;;;;;;;4.97;3.57;;;12.70;98.40;;;;;;5388611;26;21029;-65
2024/04/12 03:21:14;;;;;;;7.70;3.80;;;12.70;98.60;;;;;;5388379;26;20476;-64
2024/04/12 03:23:43;;;;;;;8.40;3.60;;;12.70;98.80;;;;;;5397098;26;20518;-64
2024/04/12 03:26:16;;;;;;;7.77;4.20;;;12.60;99.80;;;;;;5395807;26;20882;-64
2024/04/12 03:28:47;;;;;;;5.60;3.57;;;12.50;99.80;;;;;;5393894;26;20899;-64
2024/04/12 03:31:12;;;;;;;5.57;3.70;;;12.50;99.90;;;;;;5402678;26;20501;-64
2024/04/12 03:33:46;;;;;;;6.43;3.60;;;12.50;99.90;;;;;;5394580;26;21003;-65
2024/04/12 03:41:52;;;;;;;7.40;3.30;;;12.40;99.90;;;;;;5390075;26;20470;-65
2024/04/12 03:44:20;;;;;;;5.73;3.30;;;12.40;99.70;;;;;;5395394;26;20559;-65
2024/04/12 03:46:50;;;;;;;5.67;3.67;;;12.30;99.50;;;;;;5394946;26;20535;-64
2024/04/12 03:49:20;;;;;;;7.80;3.23;;;12.30;99.10;;;;;;5395878;26;21026;-64
2024/04/12 03:51:54;;;;;;;5.10;3.43;;;12.30;99.20;;;;;;5393240;26;20466;-65
2024/04/12 03:54:21;;;;;;;8.73;5.43;;;12.30;98.90;;;;;;5396533;26;20811;-64
2024/04/12 03:56:50;;;;;;;6.47;3.30;;;12.30;98.90;;;;;;5392957;26;21082;-64
2024/04/12 03:59:20;;;;;;;6.30;3.60;;;12.30;99.10;;;;;;5404210;26;20465;-64
2024/04/12 04:01:46;;;;;;;7.40;3.73;;;12.20;99.00;;;;;;5402501;26;20470;-64
2024/04/12 04:04:17;;;;;;;5.90;3.60;;;12.20;99.10;;;;;;5399347;26;20459;-64
2024/04/12 04:06:57;;;;;;;6.63;3.80;;;12.30;99.10;;;;;;5390516;26;20814;-65
2024/04/12 04:09:25;;;;;;;5.00;4.00;;;12.20;99.40;;;;;;5391701;26;20466;-65
2024/04/12 04:11:55;;;;;;;4.90;3.30;;;12.10;99.60;;;;;;5394042;26;20480;-65
2024/04/12 04:14:25;;;;;;;5.00;3.90;;;12.10;99.60;;;;;;5396074;26;21064;-65
2024/04/12 04:16:55;;;;;;;4.97;3.13;;;12.00;99.50;;;;;;5397862;26;20466;-65
2024/04/12 04:19:33;;;;;;;9.93;3.43;;;12.10;99.70;;;;;;5391922;26;20464;-65
2024/04/12 04:22:22;;;;;;;6.60;3.80;;;12.00;99.90;;;;;;5394579;26;20948;-65
2024/04/12 04:24:51;;;;;;;4.80;3.43;;;12.00;99.70;;;;;;5395946;26;20467;-65
2024/04/12 04:27:21;;;;;;;6.77;3.50;;;11.90;99.80;;;;;;5387835;26;20874;-65
2024/04/12 04:29:48;;;;;;;6.67;3.57;;;11.90;99.50;;;;;;5389853;26;20482;-65
2024/04/12 04:32:16;;;;;;;7.30;4.07;;;11.90;99.50;;;;;;5391492;26;20640;-65
2024/04/12 04:34:54;;;;;;;4.93;3.17;;;11.90;99.50;;;;;;5393481;26;20470;-65
2024/04/12 04:37:26;;;;;;;5.60;3.30;;;11.90;99.70;;;;;;5394363;26;20624;-65
2024/04/12 04:39:52;;;;;;;6.23;3.20;;;11.80;99.70;;;;;;5387229;26;20814;-65
2024/04/12 04:42:18;;;;;;;6.00;3.33;;;11.90;99.70;;;;;;5389823;26;21034;-65
2024/04/12 04:44:45;;;;;;;5.47;3.80;;;11.90;99.60;;;;;;5390850;26;20504;-65
2024/04/12 04:47:10;;;;;;;4.40;3.57;;;11.90;99.60;;;;;;5385904;26;20242;-65
2024/04/12 04:49:36;;;;;;;5.67;4.07;;;11.90;99.80;;;;;;5392036;26;20575;-65
2024/04/12 04:52:02;;;;;;;5.30;3.50;;;11.90;99.90;;;;;;5396313;26;23199;-65
2024/04/12 04:54:28;;;;;;;7.00;3.27;;;11.90;99.90;;;;;;5397936;26;20625;-65
2024/04/12 04:57:02;;;;;;;5.10;3.03;;;11.90;99.80;;;;;;5394383;26;21040;-64
2024/04/12 04:59:32;;;;;;;5.00;3.40;;;11.90;99.70;;;;;;5392623;26;20651;-65
2024/04/12 05:02:00;;;;;;;7.07;3.40;;;11.90;99.80;;;;;;5392522;26;20878;-65
2024/04/12 05:04:31;;;;;;;4.93;3.30;;;12.00;99.80;;;;;;5395274;26;21082;-64
2024/04/12 05:06:58;;;;;;;6.80;3.40;;;12.00;99.80;;;;;;5390344;26;20534;-64
2024/04/12 05:09:27;;;;;;;5.00;3.30;;;12.10;99.90;;;;;;5398510;26;20512;-64
2024/04/12 05:11:53;;;;;;;7.50;3.17;;;12.10;99.90;;;;;;5396074;26;20475;-65
2024/04/12 05:17:06;;;;;;;7.60;3.93;;;12.10;99.90;;;;;;5390961;26;20509;-64
2024/04/12 05:19:32;;;;;;;9.13;3.30;;;12.10;99.90;;;;;;5393087;26;20530;-64
2024/04/12 05:22:03;;;;;;;5.53;3.47;;;12.10;99.90;;;;;;5389282;26;20463;-65
2024/04/12 05:24:30;;;;;;;10.43;3.57;;;12.10;99.90;;;;;;5390705;26;20638;-65
2024/04/12 05:27:04;;;;;;;4.70;3.50;;;12.20;99.90;;;;;;5387636;26;20480;-64
2024/04/12 05:29:30;;;;;;;3.90;3.47;;;12.20;99.90;;;;;;5393810;26;20459;-65
2024/04/12 05:31:58;;;;;;;5.53;3.97;;;12.20;99.90;;;;;;5394617;26;20459;-65
2024/04/12 05:34:26;;;;;;;5.47;3.43;;;12.20;99.90;;;;;;5393895;26;20912;-65
2024/04/12 05:36:55;;;;;;;5.80;3.37;;;12.20;99.90;;;;;;5388350;26;20467;-65
2024/04/12 05:39:24;;;;;;;6.20;3.23;;;12.20;99.90;;;;;;5394619;26;20518;-65
2024/04/12 05:41:53;;;;;;;6.07;3.50;;;12.20;99.90;;;;;;5394186;26;21193;-65
2024/04/12 05:44:19;;;;;;;8.60;3.77;;;12.20;99.90;;;;;;5393502;26;20470;-65
2024/04/12 05:46:47;;;;;;;8.13;4.00;;;12.20;99.90;;;;;;5396271;26;20463;-65
2024/04/12 05:49:14;;;;;;;5.17;3.70;;;12.20;99.90;;;;;;5397218;26;21086;-65
2024/04/12 05:51:40;;;;;;;7.73;4.00;;;12.00;99.90;;;;;;5393352;26;20566;-65
2024/04/12 05:54:15;;;;;;;9.73;3.63;;;12.00;99.90;;;;;;5390736;26;20463;-65
2024/04/12 05:56:44;;;;;;;8.20;3.40;;;12.10;99.90;;;;;;5396459;26;20288;-65
2024/04/12 05:59:13;;;;;;;6.47;4.10;;;12.00;99.90;;;;;;5393181;26;20527;-65
2024/04/12 06:01:51;;;;;;;6.00;3.63;;;12.00;99.90;;;;;;5387887;26;21011;-64
2024/04/12 06:04:23;;;;;;;9.43;3.90;;;11.90;99.90;;;;;;5393394;26;20569;-64
2024/04/12 06:06:50;;;;;;;6.20;3.40;;;11.80;99.90;;;;;;5392541;26;20474;-65
2024/04/12 06:09:20;;;;;;;5.37;4.00;;;11.90;99.90;;;;;;5393576;26;20477;-65
2024/04/12 06:11:56;;;;;;;5.50;4.13;;;11.80;99.90;;;;;;5390442;26;20467;-66
2024/04/12 06:14:22;;;;;;;5.67;3.43;;;11.80;99.90;;;;;;5393530;26;20470;-65
2024/04/12 06:16:51;;;;;;;4.90;3.43;;;11.90;99.90;;;;;;5398974;26;20857;-65
2024/04/12 06:19:17;;;;;;;4.60;3.80;;;11.90;99.90;;;;;;5395361;26;20474;-65
2024/04/12 06:21:47;;;;;;;6.00;4.27;;;11.80;99.90;;;;;;5396451;26;20584;-64
2024/04/12 06:24:26;;;;;;;10.00;4.57;;;11.80;99.90;;;;;;5388541;26;20463;-65
2024/04/12 06:27:01;;;;;;;5.47;4.70;;;11.80;99.90;;;;;;5380193;26;20586;-65
2024/04/12 06:29:26;;;;;;;7.00;4.17;;;11.80;99.90;;;;;;5386560;26;20617;-65
2024/04/12 06:31:56;;;;;;;8.70;4.20;;;11.80;99.90;;;;;;5388979;26;20850;-64
2024/04/12 06:34:22;;;;;;;6.27;3.47;;;11.80;99.90;;;;;;5388769;26;20230;-65
2024/04/12 06:36:56;;;;;;;5.43;3.67;;;11.90;99.90;;;;;;5390171;26;20491;-65
2024/04/12 06:39:28;;;;;;;7.90;3.90;;;11.90;99.90;;;;;;5388203;26;20463;-65
2024/04/12 06:41:55;;;;;;;6.10;3.90;;;12.00;99.90;;;;;;5389996;26;20475;-65
2024/04/12 06:44:21;;;;;;;15.00;4.67;;;12.10;99.90;;;;;;5386649;26;21035;-64
2024/04/12 06:46:57;;;;;;;7.20;4.23;;;12.10;99.90;;;;;;5386137;26;20524;-65
2024/04/12 06:49:26;;;;;;;7.73;4.13;;;12.10;99.90;;;;;;5385244;26;20234;-64
2024/04/12 06:54:44;;;;;;;6.00;4.50;;;12.10;99.90;;;;;;5375603;26;21069;-65
2024/04/12 06:57:17;;;;;;;5.50;3.97;;;12.30;99.90;;;;;;5386094;26;20463;-66
2024/04/12 06:59:46;;;;;;;5.40;4.07;;;12.30;99.90;;;;;;5390326;26;20471;-64
2024/04/12 07:02:14;;;;;;;4.70;3.70;;;12.40;99.90;;;;;;5384667;26;21273;-65
2024/04/12 07:04:39;;;;;;;7.30;4.30;;;12.40;99.90;;;;;;5387124;26;21467;-65
2024/04/12 07:07:05;;;;;;;8.03;4.30;;;12.50;99.90;;;;;;5387946;26;20467;-66
2024/04/12 07:09:37;;;;;;;8.77;4.77;;;12.60;99.90;;;;;;5389115;26;20310;-65
2024/04/12 07:12:06;;;;;;;8.00;3.80;;;12.60;99.90;;;;;;5388751;26;20471;-66
2024/04/12 07:14:36;;;;;;;6.53;4.43;;;12.70;99.90;;;;;;5381797;26;20576;-65
2024/04/12 07:17:02;;;;;;;6.57;4.87;;;12.80;99.90;;;;;;5387032;26;20579;-65
2024/04/12 07:19:28;;;;;;;6.07;4.53;;;12.90;99.90;;;;;;5393892;26;20918;-65
2024/04/12 07:21:54;;;;;;;7.73;4.30;;;12.90;99.90;;;;;;5419447;26;20540;-65
2024/04/12 07:24:22;;;;;;;6.63;3.90;;;13.00;99.90;;;;;;5390884;26;20471;-65
2024/04/12 07:26:48;;;;;;;7.77;4.27;;;13.10;99.90;;;;;;5388548;26;20248;-65
2024/04/12 07:29:21;;;;;;;8.57;4.93;;;13.20;99.90;;;;;;5393438;26;20483;-65
2024/04/12 07:31:53;;;;;;;7.73;4.50;;;13.30;99.90;;;;;;5391922;26;21106;-64
2024/04/12 07:34:18;;;;;;;8.47;4.20;;;13.30;99.90;;;;;;5399651;26;20518;-64
2024/04/12 07:36:44;;;;;;;6.80;5.60;;;13.40;99.90;;;;;;5383526;26;20497;-64
2024/04/12 07:39:15;;;;;;;8.70;4.30;;;13.50;99.90;;;;;;5393159;26;20237;-64
2024/04/12 07:41:45;;;;;;;7.00;4.20;;;13.60;99.90;;;;;;5393004;26;20524;-65
2024/04/12 07:44:12;;;;;;;4.77;4.27;;;13.60;99.90;;;;;;5389128;26;21118;-65
2024/04/12 07:46:45;;;;;;;8.83;5.10;;;13.60;99.90;;;;;;5395897;26;20580;-65
2024/04/12 07:49:13;;;;;;;7.53;4.10;;;13.80;99.90;;;;;;5395744;26;20865;-64
2024/04/12 07:51:39;;;;;;;6.30;4.53;;;13.90;99.90;;;;;;5392368;26;20476;-64
2024/04/12 07:54:11;;;;;;;11.20;4.40;;;14.10;99.90;;;;;;5394004;26;20571;-64
2024/04/12 07:56:43;;;;;;;14.73;4.80;;;14.10;99.90;;;;;;5389736;26;20271;-64
2024/04/12 07:59:25;;;;;;;10.23;3.80;;;14.20;99.90;;;;;;5377454;26;20478;-65
2024/04/12 08:01:51;;;;;;;4.70;4.10;;;14.20;99.90;;;;;;5391968;26;20592;-65
2024/04/12 08:04:24;;;;;;;8.83;4.40;;;14.30;99.90;;;;;;5394593;26;20480;-65
2024/04/12 08:06:57;;;;;;;9.97;6.90;;;14.40;99.90;;;;;;5389059;26;20479;-65
2024/04/12 08:09:40;;;;;;;9.93;6.47;;;14.50;99.90;;;;;;5387632;26;20523;-65
2024/04/12 08:12:17;;;;;;;7.93;4.17;;;14.50;99.90;;;;;;5386609;26;20482;-65
2024/04/12 08:14:52;;;;;;;9.83;5.00;;;14.50;99.90;;;;;;5388112;26;20583;-65
2024/04/12 08:17:25;;;;;;;8.53;4.37;;;14.60;99.90;;;;;;5384336;26;21062;-65
2024/04/12 08:19:57;;;;;;;9.93;5.27;;;14.60;99.90;;;;;;5391240;26;20517;-64
2024/04/12 08:22:33;;;;;;;20.03;4.90;;;14.80;99.90;;;;;;5388554;26;20468;-64
2024/04/12 08:24:59;;;;;;;9.60;4.27;;;14.90;99.90;;;;;;5391789;26;20459;-64
2024/04/12 08:27:25;;;;;;;8.40;4.40;;;15.00;99.90;;;;;;5394276;26;20581;-64
2024/04/12 08:29:57;;;;;;;7.00;5.50;;;15.00;99.90;;;;;;5397444;26;20522;-63
2024/04/12 08:32:31;;;;;;;7.27;3.43;;;15.10;99.90;;;;;;5387063;26;20633;-64
2024/04/12 08:35:06;;;;;;;8.90;4.20;;;15.10;99.90;;;;;;5395575;26;20478;-64
2024/04/12 08:37:36;;;;;;;5.90;4.40;;;15.10;99.90;;;;;;5386981;26;20532;-64
2024/04/12 08:40:08;;;;;;;9.20;3.87;;;15.20;99.90;;;;;;5390679;26;20463;-65
2024/04/12 08:42:34;;;;;;;4.97;3.93;;;15.30;99.90;;;;;;5391825;26;20823;-66
2024/04/12 08:45:12;;;;;;;5.70;4.00;;;15.40;99.90;;;;;;5388905;26;21375;-66
2024/04/12 08:47:51;;;;;;;7.20;4.50;;;15.60;99.90;;;;;;5389437;26;20475;-66
2024/04/12 08:50:23;;;;;;;8.03;4.07;;;15.70;99.90;;;;;;5388696;26;20502;-66
2024/04/12 08:52:52;;;;;;;9.60;4.73;;;15.70;99.90;;;;;;5397357;26;21384;-65
2024/04/12 08:55:23;;;;;;;6.70;4.33;;;15.80;99.90;;;;;;5393491;26;20476;-66
2024/04/12 08:57:57;;;;;;;7.93;5.13;;;15.90;99.90;;;;;;5399549;26;21271;-66
2024/04/12 09:00:28;;;;;;;8.03;4.63;;;15.90;99.90;;;;;;5396947;26;20521;-66
2024/04/12 09:02:59;;;;;;;10.97;5.07;;;16.00;99.90;;;;;;5403582;26;20537;-65
2024/04/12 09:05:30;;;;;;;10.40;4.97;;;16.00;99.90;;;;;;5392705;26;20474;-64
2024/04/12 09:07:58;;;;;;;8.70;4.63;;;16.20;99.90;;;;;;5396512;26;20467;-65
2024/04/12 09:10:25;;;;;;;5.80;4.10;;;16.20;99.90;;;;;;5395041;26;21043;-66
2024/04/12 09:12:52;;;;;;;7.00;4.53;;;16.30;99.90;;;;;;5398005;26;20467;-65
2024/04/12 09:15:32;;;;;;;8.70;4.20;;;16.40;99.90;;;;;;5390049;26;20519;-65
2024/04/12 09:18:01;;;;;;;7.73;4.80;;;16.50;99.90;;;;;;5398723;26;20513;-65
2024/04/12 09:20:31;;;;;;;11.80;4.87;;;16.60;99.90;;;;;;5390693;26;20585;-66
2024/04/12 09:23:14;;;;;;;4.70;4.20;;;16.70;99.20;;;;;;5391176;26;21068;-66
2024/04/12 09:25:54;;;;;;;14.10;5.10;;;16.60;99.30;;;;;;5394172;26;20912;-66
2024/04/12 09:28:22;;;;;;;6.87;4.83;;;16.70;99.50;;;;;;5392468;26;20634;-66
2024/04/12 09:33:33;;;;;;;10.03;4.87;;;16.80;99.10;;;;;;5390663;26;21410;-65
2024/04/12 09:36:04;;;;;;;6.47;4.27;;;17.00;97.20;;;;;;5389722;26;20467;-65
2024/04/12 09:38:31;;;;;;;8.43;4.60;;;17.00;97.10;;;;;;5392692;26;21220;-65
2024/04/12 09:41:03;;;;;;;9.57;4.40;;;17.10;97.50;;;;;;5391223;26;20599;-66
2024/04/12 09:43:36;;;;;;;11.30;4.57;;;17.20;97.20;;;;;;5391040;26;20902;-66
2024/04/12 09:46:09;;;;;;;7.47;4.50;;;17.30;97.40;;;;;;5393361;26;20476;-66
2024/04/12 10:38:59;;;;;;;5.10;3.00;;;19.20;80.40;;;;;;5393176;26;20566;-66
2024/04/12 10:41:35;;;;;;;6.57;5.93;;;19.10;78.20;;;;;;5391495;26;21089;-66
2024/04/12 10:44:03;;;;;;;6.70;5.43;;;19.30;78.70;;;;;;5389140;26;20334;-64
2024/04/12 10:46:29;;;;;;;5.30;4.07;;;19.30;78.50;;;;;;5391998;26;20526;-65
2024/04/12 10:48:56;;;;;;;5.63;3.70;;;19.40;79.00;;;;;;5392163;26;21029;-65
2024/04/12 10:51:23;;;;;;;12.80;3.60;;;19.50;79.40;;;;;;5387912;26;20315;-64
2024/04/12 10:53:51;;;;;;;6.17;3.07;;;19.60;78.20;;;;;;5392725;26;20475;-64
2024/04/12 10:56:19;;;;;;;5.17;3.10;;;19.70;77.40;;;;;;5389408;26;20471;-66
2024/04/12 10:58:51;;;;;;;6.30;4.47;;;19.80;77.30;;;;;;5395740;26;20468;-64
2024/04/12 11:01:26;;;;;;;7.13;3.60;;;19.90;75.80;;;;;;5390682;26;20520;-66
2024/04/12 11:03:58;;;;;;;7.80;4.17;;;20.00;73.70;;;;;;5384837;26;20593;-64
2024/04/12 11:06:34;;;;;;;5.67;3.03;;;20.00;73.00;;;;;;5386969;26;20477;-66
2024/04/12 11:09:03;;;;;;;6.23;3.33;;;20.10;71.80;;;;;;5386841;26;20598;-66
2024/04/12 11:11:43;;;;;;;6.80;3.60;;;20.10;71.40;;;;;;5382781;26;20477;-66
2024/04/12 11:14:17;;;;;;;5.40;3.50;;;20.20;71.70;;;;;;5394009;26;20470;-64
2024/04/12 11:33:32;;;;;;;5.97;2.97;;;20.30;69.20;;;;;;5391186;26;20556;-64
2024/04/12 11:36:01;;;;;;;4.43;3.33;;;20.40;67.30;;;;;;5391529;26;20470;-64
2024/04/12 11:38:27;;;;;;;5.27;2.97;;;20.60;68.00;;;;;;5379916;26;20472;-64
2024/04/12 11:41:06;;;;;;;4.27;2.70;;;20.70;67.60;;;;;;5391437;26;20597;-64
2024/04/12 11:43:34;;;;;;;4.20;2.60;;;20.80;64.60;;;;;;5376736;26;20241;-65
2024/04/12 11:46:03;;;;;;;6.13;3.27;;;21.00;65.30;;;;;;5389170;26;20575;-66
2024/04/12 11:48:31;;;;;;;4.20;2.90;;;21.00;66.20;;;;;;5384574;26;20538;-66
2024/04/12 11:50:58;;;;;;;7.37;3.60;;;21.20;65.60;;;;;;5390640;26;20587;-64
2024/04/12 11:53:25;;;;;;;6.10;3.27;;;21.40;64.30;;;;;;5390324;26;20524;-65
2024/04/12 11:55:51;;;;;;;6.67;2.73;;;21.60;62.80;;;;;;5373155;26;20478;-65
2024/04/12 11:58:17;;;;;;;5.13;2.80;;;21.80;63.60;;;;;;5391111;26;20474;-65
2024/04/12 12:00:43;;;;;;;5.83;3.07;;;22.10;63.80;;;;;;5392768;26;20328;-65
2024/04/12 12:03:15;;;;;;;5.80;2.90;;;22.60;63.30;;;;;;5395151;26;20292;-65
2024/04/12 12:05:42;;;;;;;4.43;2.93;;;23.40;58.90;;;;;;5391733;26;20587;-65
2024/04/12 12:08:12;;;;;;;5.30;3.07;;;24.30;56.10;;;;;;5384805;26;20468;-64
2024/04/12 12:10:44;;;;;;;3.27;2.70;;;25.30;55.00;;;;;;5392372;26;20522;-65
2024/04/12 12:13:09;;;;;;;3.63;2.77;;;26.40;53.50;;;;;;5401121;26;20526;-65
2024/04/12 12:15:35;;;;;;;5.50;3.20;;;27.10;50.30;;;;;;5399433;26;21083;-65
2024/04/12 12:18:01;;;;;;;4.90;2.93;;;27.80;48.30;;;;;;5386847;26;20284;-65
2024/04/12 12:20:30;;;;;;;4.70;3.20;;;28.20;47.90;;;;;;5399531;26;20233;-65
2024/04/12 12:22:55;;;;;;;5.93;3.47;;;28.90;47.00;;;;;;5391299;26;20233;-65
2024/04/12 12:25:21;;;;;;;4.83;2.90;;;29.20;45.40;;;;;;5388333;26;21004;-65
2024/04/12 12:27:49;;;;;;;4.77;2.80;;;29.80;44.00;;;;;;5392175;26;20225;-65
2024/04/12 12:30:18;;;;;;;5.03;2.80;;;30.40;43.70;;;;;;5389974;26;20242;-65
2024/04/12 12:32:44;;;;;;;8.43;3.00;;;30.50;41.20;;;;;;5389000;26;20525;-65
2024/04/12 12:35:18;;;;;;;7.37;2.93;;;30.90;41.80;;;;;;5396497;26;21231;-65
2024/04/12 12:37:46;;;;;;;4.87;3.30;;;31.50;40.80;;;;;;5391656;26;20537;-65
2024/04/12 12:40:13;;;;;;;5.47;2.90;;;32.10;40.60;;;;;;5386626;26;21055;-65
2024/04/12 12:42:39;;;;;;;4.63;2.93;;;32.30;39.20;;;;;;5378099;26;20521;-65
2024/04/12 12:45:11;;;;;;;5.43;2.60;;;32.90;38.90;;;;;;5392328;26;20521;-65
2024/04/12 12:47:37;;;;;;;4.37;3.00;;;32.70;36.80;;;;;;5394615;26;20485;-65
2024/04/12 12:50:03;;;;;;;3.70;2.80;;;32.50;37.00;;;;;;5391796;26;20486;-65
2024/04/12 12:52:32;;;;;;;4.43;2.90;;;32.00;36.20;;;;;;5395146;26;20545;-65
2024/04/12 12:55:00;;;;;;;7.20;3.13;;;32.10;36.50;;;;;;5395954;26;20233;-65
2024/04/12 12:57:25;;;;;;;4.70;2.77;;;32.10;37.10;;;;;;5392382;26;20443;-65
2024/04/12 12:59:54;;;;;;;3.33;2.70;;;32.10;36.70;;;;;;5378865;26;20929;-65
2024/04/12 13:02:19;;;;;;;3.43;2.73;;;32.50;36.10;;;;;;5380414;26;20292;-65
2024/04/12 13:04:46;;;;;;;6.90;2.87;;;32.50;37.00;;;;;;5384394;26;20476;-65
2024/04/12 13:07:13;;;;;;;3.83;3.03;;;32.60;36.90;;;;;;5395871;26;20264;-65
2024/04/12 13:09:38;;;;;;;4.80;3.47;;;32.70;37.10;;;;;;5385877;26;20484;-65
2024/04/12 13:12:09;;;;;;;5.20;3.00;;;32.90;37.60;;;;;;5382668;26;20452;-65
2024/04/12 13:14:37;;;;;;;4.27;2.87;;;32.90;36.70;;;;;;5397818;26;20715;-65
2024/04/12 13:17:11;;;;;;;4.43;2.90;;;33.10;36.00;;;;;;5421485;26;20455;-65
2024/04/12 13:19:38;;;;;;;4.60;2.90;;;34.90;36.30;;;;;;5387662;26;20469;-65
2024/04/12 13:22:08;;;;;;;5.10;2.70;;;37.50;34.40;;;;;;5384363;26;20463;-65
2024/04/12 13:24:34;;;;;;;5.27;3.23;;;39.60;32.40;;;;;;5393426;26;20462;-65
2024/04/12 13:26:59;;;;;;;4.80;3.30;;;41.80;30.20;;;;;;5386287;26;20466;-65
2024/04/12 13:29:30;;;;;;;5.80;2.70;;;43.10;28.80;;;;;;5378658;26;20506;-65
2024/04/12 13:31:57;;;;;;;4.00;3.00;;;44.60;28.40;;;;;;5384654;26;20272;-64
2024/04/12 13:34:24;;;;;;;3.77;2.93;;;45.50;26.30;;;;;;5381387;26;20463;-64
2024/04/12 13:36:52;;;;;;;4.93;3.63;;;44.90;25.30;;;;;;5395261;26;20524;-66
2024/04/12 13:39:19;;;;;;;6.07;2.80;;;45.60;25.50;;;;;;5392786;26;20519;-66
2024/04/12 13:41:45;;;;;;;4.47;2.60;;;45.40;25.20;;;;;;5389187;26;20549;-66
2024/04/12 13:50:45;;;;;;;3.63;2.70;;;45.30;24.70;;;;;;5394759;26;20476;-65
2024/04/12 13:52:42;;;;;;;6.50;3.03;;;43.20;25.00;;;;;;5391206;26;20649;-65
2024/04/12 13:55:10;;;;;;;7.07;3.17;;;42.10;25.10;;;;;;5389822;26;20486;-65
2024/04/12 13:57:38;;;;;;;4.60;3.13;;;41.40;25.80;;;;;;5386974;26;20470;-66
2024/04/12 14:00:09;;;;;;;5.63;2.97;;;40.90;25.80;;;;;;5391607;26;20523;-66
2024/04/12 14:02:35;;;;;;;3.70;2.40;;;40.70;26.20;;;;;;5389277;26;20484;-66
2024/04/12 14:05:04;;;;;;;7.00;2.83;;;40.50;26.50;;;;;;5391397;26;20471;-66
2024/04/12 14:07:33;;;;;;;5.70;2.70;;;40.50;26.90;;;;;;5387773;26;20283;-66
2024/04/12 14:10:03;;;;;;;3.90;2.80;;;40.70;27.10;;;;;;5385067;26;20657;-66
2024/04/12 14:12:30;;;;;;;5.17;2.77;;;41.00;27.50;;;;;;5384152;26;20542;-67
2024/04/12 14:14:55;;;;;;;3.43;3.03;;;41.30;27.40;;;;;;5393287;26;20451;-65
2024/04/12 14:17:22;;;;;;;4.70;2.90;;;41.70;27.50;;;;;;5397455;26;20497;-66
2024/04/12 14:19:48;;;;;;;4.53;2.83;;;42.00;27.20;;;;;;5389204;26;20828;-66
2024/04/12 14:22:14;;;;;;;3.50;2.63;;;42.10;27.10;;;;;;5396699;26;20463;-66
2024/04/12 14:25:02;;;;;;;3.13;2.60;;;42.10;26.60;;;;;;5394608;26;20737;-66
2024/04/12 14:27:36;;;;;;;3.50;2.80;;;41.50;26.90;;;;;;5392063;26;20272;-66